Time;durP1;ratioP1;P1;durP2;ratioP2;P2;SDS_P1;SDS_P2;PMS_P1;PMS_P2;Temp;Humidity;BMP_temperature;BMP_pressure;BME280_temperature;BME280_humidity;BME280_pressure;Samples;Min_cycle;Max_cycle;Signal;HPM_P1;HPM_P2
2022/03/21 00:00:30;;;;;;;14.02;9.90;;;;;;;;;;5100082;28;20091;-83
2022/03/21 00:02:57;;;;;;;13.20;9.13;;;;;;;;;;5096847;28;20114;-82
2022/03/21 00:05:23;;;;;;;14.85;10.13;;;;;;;;;;5080127;28;20027;-82
2022/03/21 00:07:49;;;;;;;13.05;10.15;;;;;;;;;;5115238;28;20489;-82
2022/03/21 00:10:15;;;;;;;13.63;10.02;;;;;;;;;;5096766;28;20015;-82
2022/03/21 00:12:41;;;;;;;15.00;9.57;;;;;;;;;;5115601;28;20149;-80
2022/03/21 00:15:10;;;;;;;13.60;9.65;;;;;;;;;;5115436;28;20019;-80
2022/03/21 00:17:40;;;;;;;13.05;9.70;;;;;;;;;;5097504;28;20047;-80
2022/03/21 00:20:08;;;;;;;15.13;10.43;;;;;;;;;;5097348;28;20126;-81
2022/03/21 00:22:33;;;;;;;13.57;9.90;;;;;;;;;;5096672;28;20441;-84
2022/03/21 00:24:59;;;;;;;13.48;10.27;;;;;;;;;;5096852;28;20028;-83
2022/03/21 00:27:24;;;;;;;12.32;9.50;;;;;;;;;;5096471;28;20034;-83
2022/03/21 00:29:49;;;;;;;13.23;9.90;;;;;;;;;;5115100;28;20023;-81
2022/03/21 00:32:15;;;;;;;13.55;9.68;;;;;;;;;;5062901;28;20024;-81
2022/03/21 00:34:40;;;;;;;12.43;9.63;;;;;;;;;;5096326;28;20124;-83
2022/03/21 00:37:08;;;;;;;11.32;9.27;;;;;;;;;;5114624;28;20031;-81
2022/03/21 00:39:34;;;;;;;16.58;10.05;;;;;;;;;;5078931;28;20035;-81
2022/03/21 00:41:59;;;;;;;14.25;10.82;;;;;;;;;;5062049;28;20104;-81
2022/03/21 00:44:25;;;;;;;13.10;9.75;;;;;;;;;;5114374;28;20032;-81
2022/03/21 00:46:50;;;;;;;14.85;10.40;;;;;;;;;;5095839;28;20070;-81
2022/03/21 00:49:15;;;;;;;11.98;9.57;;;;;;;;;;5079086;28;20055;-81
2022/03/21 00:51:41;;;;;;;15.32;11.32;;;;;;;;;;5079541;28;20504;-81
2022/03/21 00:54:06;;;;;;;19.15;11.23;;;;;;;;;;5078931;28;20456;-81
2022/03/21 00:56:31;;;;;;;14.95;10.18;;;;;;;;;;5096396;28;20039;-81
2022/03/21 00:58:57;;;;;;;15.35;10.30;;;;;;;;;;5095881;28;20081;-81
2022/03/21 01:01:23;;;;;;;16.35;10.88;;;;;;;;;;5079603;28;20035;-80
2022/03/21 01:03:48;;;;;;;15.93;10.55;;;;;;;;;;5114158;28;20386;-81
2022/03/21 01:06:14;;;;;;;15.45;10.60;;;;;;;;;;5095913;28;20122;-80
2022/03/21 01:08:39;;;;;;;15.43;11.50;;;;;;;;;;5095812;28;20473;-81
2022/03/21 01:11:04;;;;;;;16.58;11.18;;;;;;;;;;5095960;28;20437;-81
2022/03/21 01:13:30;;;;;;;14.05;10.55;;;;;;;;;;5114295;28;20123;-81
2022/03/21 01:15:55;;;;;;;15.63;10.98;;;;;;;;;;5096164;28;20073;-81
2022/03/21 01:18:22;;;;;;;16.90;11.63;;;;;;;;;;5114443;28;20077;-81
2022/03/21 01:20:48;;;;;;;15.88;11.07;;;;;;;;;;5095925;28;20027;-81
2022/03/21 01:23:13;;;;;;;15.75;10.20;;;;;;;;;;5095546;28;20035;-83
2022/03/21 01:25:39;;;;;;;14.75;10.88;;;;;;;;;;5095539;28;20092;-81
2022/03/21 01:28:04;;;;;;;15.82;10.82;;;;;;;;;;5114299;28;20035;-82
2022/03/21 01:30:30;;;;;;;17.70;11.55;;;;;;;;;;5098176;28;20040;-84
2022/03/21 01:32:55;;;;;;;15.80;11.07;;;;;;;;;;5116399;28;20102;-82
2022/03/21 01:35:21;;;;;;;15.30;10.73;;;;;;;;;;5097146;28;20031;-82
2022/03/21 01:37:47;;;;;;;12.82;10.25;;;;;;;;;;5096985;28;20027;-83
2022/03/21 01:40:14;;;;;;;15.23;11.15;;;;;;;;;;5079623;28;20132;-82
2022/03/21 01:42:43;;;;;;;16.38;10.60;;;;;;;;;;5078988;28;20023;-81
2022/03/21 01:45:09;;;;;;;16.73;10.85;;;;;;;;;;5096382;28;20094;-80
2022/03/21 01:47:35;;;;;;;13.02;10.40;;;;;;;;;;5114358;28;20058;-80
2022/03/21 01:50:02;;;;;;;14.00;10.30;;;;;;;;;;5096282;28;20051;-81
2022/03/21 01:52:28;;;;;;;15.50;11.10;;;;;;;;;;5114828;28;20049;-81
2022/03/21 01:57:37;;;;;;;14.63;10.63;;;;;;;;;;5105240;28;20039;-84
2022/03/21 02:00:04;;;;;;;17.27;10.80;;;;;;;;;;5120568;28;20031;-82
2022/03/21 02:02:30;;;;;;;14.40;10.27;;;;;;;;;;5095541;28;20031;-82
2022/03/21 02:04:55;;;;;;;15.15;10.30;;;;;;;;;;5078215;28;20031;-83
2022/03/21 02:07:21;;;;;;;13.23;10.27;;;;;;;;;;5112914;28;20405;-83
2022/03/21 02:09:47;;;;;;;15.15;11.30;;;;;;;;;;5094530;28;20082;-85
2022/03/21 02:12:12;;;;;;;16.67;10.60;;;;;;;;;;5113084;28;20069;-83
2022/03/21 02:14:39;;;;;;;18.02;11.23;;;;;;;;;;5112840;28;20518;-83
2022/03/21 02:17:06;;;;;;;15.10;10.20;;;;;;;;;;5094897;28;20032;-83
2022/03/21 02:19:32;;;;;;;12.98;9.70;;;;;;;;;;5112785;28;20031;-83
2022/03/21 02:21:57;;;;;;;15.98;10.48;;;;;;;;;;5112644;28;20024;-82
2022/03/21 02:24:36;;;;;;;13.90;9.45;;;;;;;;;;5112706;28;20110;-82
2022/03/21 02:27:02;;;;;;;14.40;9.38;;;;;;;;;;5077412;28;20401;-82
2022/03/21 02:29:29;;;;;;;11.60;9.23;;;;;;;;;;5077365;28;20118;-82
2022/03/21 02:31:55;;;;;;;14.20;9.93;;;;;;;;;;5094225;28;20050;-82
2022/03/21 02:34:22;;;;;;;12.45;9.77;;;;;;;;;;5095298;28;20423;-82
2022/03/21 02:36:47;;;;;;;14.38;10.13;;;;;;;;;;5077638;28;20033;-82
2022/03/21 02:39:13;;;;;;;12.95;9.45;;;;;;;;;;5094651;28;20114;-81
2022/03/21 02:41:39;;;;;;;13.30;9.70;;;;;;;;;;5095308;28;20035;-83
2022/03/21 02:44:04;;;;;;;13.13;9.93;;;;;;;;;;5094652;28;20070;-83
2022/03/21 02:46:29;;;;;;;14.00;10.32;;;;;;;;;;5078069;28;20027;-83
2022/03/21 02:48:56;;;;;;;14.38;9.88;;;;;;;;;;5113398;28;20027;-84
2022/03/21 02:51:22;;;;;;;15.95;9.80;;;;;;;;;;5096857;28;20130;-85
2022/03/21 02:53:50;;;;;;;15.05;10.13;;;;;;;;;;5096612;28;20430;-83
2022/03/21 02:56:16;;;;;;;12.32;9.75;;;;;;;;;;5096341;28;20035;-84
2022/03/21 02:58:41;;;;;;;14.35;9.57;;;;;;;;;;5097377;28;20027;-82
2022/03/21 03:01:14;;;;;;;13.07;9.40;;;;;;;;;;5112542;28;20489;-83
2022/03/21 03:03:40;;;;;;;10.90;9.00;;;;;;;;;;5113882;28;20098;-82
2022/03/21 03:06:06;;;;;;;11.45;9.30;;;;;;;;;;5098343;28;20123;-83
2022/03/21 03:08:32;;;;;;;14.90;9.80;;;;;;;;;;5098018;28;20434;-83
2022/03/21 03:10:58;;;;;;;13.40;9.43;;;;;;;;;;5080939;28;20031;-83
2022/03/21 03:13:23;;;;;;;11.23;8.77;;;;;;;;;;5116522;28;20098;-84
2022/03/21 03:15:49;;;;;;;12.20;9.20;;;;;;;;;;5116916;28;20110;-84
2022/03/21 03:18:15;;;;;;;13.52;9.43;;;;;;;;;;5098145;28;20478;-83
2022/03/21 03:20:51;;;;;;;14.13;9.75;;;;;;;;;;5098034;28;20030;-83
2022/03/21 03:23:21;;;;;;;12.32;9.43;;;;;;;;;;5098381;28;20114;-84
2022/03/21 03:25:51;;;;;;;11.40;9.10;;;;;;;;;;5098633;28;20024;-83
2022/03/21 03:28:16;;;;;;;11.68;8.73;;;;;;;;;;5098017;28;20030;-83
2022/03/21 03:30:42;;;;;;;12.15;9.15;;;;;;;;;;5064150;28;20032;-83
2022/03/21 03:33:08;;;;;;;13.38;9.15;;;;;;;;;;5097633;28;20019;-83
2022/03/21 03:35:34;;;;;;;13.77;9.25;;;;;;;;;;5115870;28;20046;-84
2022/03/21 03:37:59;;;;;;;12.07;9.25;;;;;;;;;;5097745;28;20028;-84
2022/03/21 03:40:24;;;;;;;12.68;9.45;;;;;;;;;;5097403;28;20066;-84
2022/03/21 03:42:50;;;;;;;14.98;10.07;;;;;;;;;;5097481;28;20076;-84
2022/03/21 03:45:15;;;;;;;12.45;9.30;;;;;;;;;;5097355;28;20110;-84
2022/03/21 03:47:41;;;;;;;12.45;9.15;;;;;;;;;;5115407;28;20076;-84
2022/03/21 03:50:07;;;;;;;12.98;9.77;;;;;;;;;;5063742;28;20035;-84
2022/03/21 03:52:33;;;;;;;13.43;9.60;;;;;;;;;;5116109;28;20031;-85
2022/03/21 03:54:58;;;;;;;14.40;9.70;;;;;;;;;;5115003;28;20105;-84
2022/03/21 03:57:24;;;;;;;11.73;9.23;;;;;;;;;;5096996;28;20046;-84
2022/03/21 03:59:49;;;;;;;12.95;8.73;;;;;;;;;;5079866;28;20024;-84
2022/03/21 04:02:15;;;;;;;14.75;9.52;;;;;;;;;;5115024;28;20390;-84
2022/03/21 04:04:40;;;;;;;9.57;8.35;;;;;;;;;;5097326;28;20024;-84
2022/03/21 04:07:06;;;;;;;12.10;9.10;;;;;;;;;;5115117;28;20438;-84
2022/03/21 04:09:31;;;;;;;13.35;8.52;;;;;;;;;;5097106;28;20100;-84
2022/03/21 04:11:57;;;;;;;11.95;8.50;;;;;;;;;;5079649;28;20427;-82
2022/03/21 04:14:22;;;;;;;14.18;8.77;;;;;;;;;;5115062;28;20040;-84
2022/03/21 04:16:48;;;;;;;11.70;8.90;;;;;;;;;;5115020;28;20034;-84
2022/03/21 04:19:13;;;;;;;13.18;8.93;;;;;;;;;;5115023;28;20032;-83
2022/03/21 04:21:39;;;;;;;10.35;7.88;;;;;;;;;;5096397;28;20459;-84
2022/03/21 04:24:05;;;;;;;13.20;8.75;;;;;;;;;;5096875;28;20023;-82
2022/03/21 04:26:30;;;;;;;12.52;8.60;;;;;;;;;;5096647;28;20092;-84
2022/03/21 04:28:56;;;;;;;11.88;8.40;;;;;;;;;;5115585;28;20051;-82
2022/03/21 04:31:21;;;;;;;9.43;7.47;;;;;;;;;;5065336;28;20031;-84
2022/03/21 04:33:47;;;;;;;13.68;9.27;;;;;;;;;;5080944;28;20053;-81
2022/03/21 04:36:13;;;;;;;11.57;7.90;;;;;;;;;;5096614;28;20032;-83
2022/03/21 04:38:39;;;;;;;10.68;8.13;;;;;;;;;;5096961;28;20028;-81
2022/03/21 04:41:04;;;;;;;11.68;8.43;;;;;;;;;;5096340;28;20035;-82
2022/03/21 04:43:30;;;;;;;12.80;8.48;;;;;;;;;;5079739;28;20024;-84
2022/03/21 04:45:56;;;;;;;12.15;8.63;;;;;;;;;;5096497;28;20031;-81
2022/03/21 04:48:21;;;;;;;11.85;8.90;;;;;;;;;;5114585;28;20036;-83
2022/03/21 04:50:47;;;;;;;13.18;8.50;;;;;;;;;;5079949;28;20030;-83
2022/03/21 04:53:12;;;;;;;10.18;7.78;;;;;;;;;;5096098;28;20034;-83
2022/03/21 04:55:39;;;;;;;10.85;8.00;;;;;;;;;;5096014;28;20031;-83
2022/03/21 04:58:05;;;;;;;12.05;8.10;;;;;;;;;;5079760;28;20023;-83
2022/03/21 05:00:30;;;;;;;10.88;7.63;;;;;;;;;;5095854;28;20032;-83
2022/03/21 05:02:56;;;;;;;10.40;7.38;;;;;;;;;;5079041;28;20369;-82
2022/03/21 05:05:21;;;;;;;12.63;7.88;;;;;;;;;;5079015;28;20133;-84
2022/03/21 05:07:49;;;;;;;10.45;7.20;;;;;;;;;;5096003;28;20028;-83
2022/03/21 05:10:15;;;;;;;10.40;7.47;;;;;;;;;;5079476;28;20089;-83
2022/03/21 05:12:40;;;;;;;10.00;7.32;;;;;;;;;;5115724;28;20024;-83
2022/03/21 05:15:07;;;;;;;12.43;7.60;;;;;;;;;;5097779;28;20028;-81
2022/03/21 05:17:33;;;;;;;10.85;7.60;;;;;;;;;;5114401;28;20046;-81
2022/03/21 05:19:59;;;;;;;10.05;7.47;;;;;;;;;;5114286;28;20027;-80
2022/03/21 05:22:25;;;;;;;13.13;7.03;;;;;;;;;;5079034;28;20342;-82
2022/03/21 05:35:55;;;;;;;11.88;7.88;;;;;;;;;;5098809;28;20058;-83
2022/03/21 05:38:30;;;;;;;12.07;7.88;;;;;;;;;;5114216;28;20463;-81
2022/03/21 05:40:59;;;;;;;15.50;7.88;;;;;;;;;;5095814;28;20023;-82
2022/03/21 05:43:26;;;;;;;15.40;7.60;;;;;;;;;;5079321;28;20020;-82
2022/03/21 05:45:52;;;;;;;11.50;7.05;;;;;;;;;;5079152;28;20019;-82
2022/03/21 05:51:02;;;;;;;13.02;7.75;;;;;;;;;;5099164;28;20041;-81
2022/03/21 05:53:29;;;;;;;21.15;8.60;;;;;;;;;;5092894;28;20075;-83
2022/03/21 05:55:55;;;;;;;16.83;10.05;;;;;;;;;;5092870;28;20030;-83
2022/03/21 05:58:21;;;;;;;17.20;9.38;;;;;;;;;;5094192;28;20020;-84
2022/03/21 06:00:46;;;;;;;22.45;11.20;;;;;;;;;;5094252;28;20475;-83
2022/03/21 06:03:12;;;;;;;20.50;10.00;;;;;;;;;;5093180;28;20028;-84
2022/03/21 06:05:37;;;;;;;17.25;9.60;;;;;;;;;;5076189;28;20034;-83
2022/03/21 06:08:04;;;;;;;23.92;10.20;;;;;;;;;;5094965;28;20038;-83
2022/03/21 06:10:30;;;;;;;21.17;10.05;;;;;;;;;;5094417;28;20032;-84
2022/03/21 06:12:55;;;;;;;25.55;9.85;;;;;;;;;;5094307;28;20070;-84
2022/03/21 06:15:21;;;;;;;17.02;8.43;;;;;;;;;;5096745;28;20028;-84
2022/03/21 06:17:46;;;;;;;17.20;8.85;;;;;;;;;;5099763;28;20062;-84
2022/03/21 06:20:16;;;;;;;16.92;8.70;;;;;;;;;;5080450;28;20035;-84
2022/03/21 06:22:42;;;;;;;17.13;7.95;;;;;;;;;;5081687;28;20613;-85
2022/03/21 06:25:09;;;;;;;12.88;8.48;;;;;;;;;;5097595;28;20039;-83
2022/03/21 06:27:37;;;;;;;15.40;7.95;;;;;;;;;;5104208;28;20028;-82
2022/03/21 06:30:04;;;;;;;22.60;8.70;;;;;;;;;;5099404;28;20035;-84
2022/03/21 06:32:29;;;;;;;12.98;8.13;;;;;;;;;;5095196;28;20090;-84
2022/03/21 06:34:55;;;;;;;12.55;8.23;;;;;;;;;;5094156;28;20110;-84
2022/03/21 06:37:20;;;;;;;11.15;7.20;;;;;;;;;;5093995;28;20390;-84
2022/03/21 06:39:46;;;;;;;11.35;7.53;;;;;;;;;;5075243;28;20043;-84
2022/03/21 06:42:14;;;;;;;22.33;8.23;;;;;;;;;;5094733;28;20343;-83
2022/03/21 06:44:42;;;;;;;11.75;6.97;;;;;;;;;;5094734;28;20024;-83
2022/03/21 06:47:08;;;;;;;13.23;7.70;;;;;;;;;;5076524;28;20036;-83
2022/03/21 06:49:34;;;;;;;15.32;8.32;;;;;;;;;;5092022;28;20024;-84
2022/03/21 06:52:02;;;;;;;12.48;7.10;;;;;;;;;;5093749;28;20043;-83
2022/03/21 06:54:29;;;;;;;11.57;6.72;;;;;;;;;;5107244;28;20051;-83
2022/03/21 06:56:55;;;;;;;12.43;6.05;;;;;;;;;;5096436;28;20039;-84
2022/03/21 06:59:20;;;;;;;12.25;6.60;;;;;;;;;;5116248;28;20032;-84
2022/03/21 07:01:46;;;;;;;8.82;6.32;;;;;;;;;;5081443;28;20031;-84
2022/03/21 07:04:11;;;;;;;7.32;5.13;;;;;;;;;;5098400;28;20032;-82
2022/03/21 07:06:36;;;;;;;11.85;5.90;;;;;;;;;;5078990;28;20031;-85
2022/03/21 07:09:02;;;;;;;13.40;6.10;;;;;;;;;;5114595;28;20110;-84
2022/03/21 07:11:29;;;;;;;9.85;5.78;;;;;;;;;;5095392;28;20035;-83
2022/03/21 07:13:54;;;;;;;9.30;6.15;;;;;;;;;;5114420;28;20076;-83
2022/03/21 07:16:20;;;;;;;8.65;5.30;;;;;;;;;;5082280;28;20036;-83
2022/03/21 07:18:47;;;;;;;10.73;5.68;;;;;;;;;;5115698;28;20027;-83
2022/03/21 07:21:14;;;;;;;11.50;5.65;;;;;;;;;;5099952;28;20050;-83
2022/03/21 07:23:40;;;;;;;7.15;5.35;;;;;;;;;;5114498;28;20031;-84
2022/03/21 07:26:05;;;;;;;11.35;5.63;;;;;;;;;;5096013;28;20429;-83
2022/03/21 07:28:31;;;;;;;8.60;5.47;;;;;;;;;;5078912;28;20115;-83
2022/03/21 07:30:57;;;;;;;10.25;4.82;;;;;;;;;;5094352;28;20070;-83
2022/03/21 07:33:24;;;;;;;8.20;5.38;;;;;;;;;;5094682;28;20028;-83
2022/03/21 07:35:50;;;;;;;9.48;5.60;;;;;;;;;;5113444;28;20420;-83
2022/03/21 07:38:15;;;;;;;8.48;5.20;;;;;;;;;;5095248;28;20031;-83
2022/03/21 07:40:41;;;;;;;8.60;5.38;;;;;;;;;;5095912;28;20031;-83
2022/03/21 07:43:07;;;;;;;9.15;5.60;;;;;;;;;;5113789;28;20028;-83
2022/03/21 07:48:17;;;;;;;10.27;5.72;;;;;;;;;;5084475;28;20463;-84
2022/03/21 07:50:42;;;;;;;8.32;5.45;;;;;;;;;;5080591;28;20059;-84
2022/03/21 07:53:07;;;;;;;6.97;5.38;;;;;;;;;;5081123;28;20497;-84
2022/03/21 07:55:33;;;;;;;7.95;5.40;;;;;;;;;;5082231;28;20028;-83
2022/03/21 07:58:01;;;;;;;8.77;5.07;;;;;;;;;;5117227;28;20028;-84
2022/03/21 08:00:28;;;;;;;12.18;5.18;;;;;;;;;;5098331;28;20032;-85
2022/03/21 08:02:54;;;;;;;10.13;6.07;;;;;;;;;;5098301;28;20027;-84
2022/03/21 08:05:19;;;;;;;9.63;5.50;;;;;;;;;;5099088;28;20492;-85
2022/03/21 08:07:45;;;;;;;8.75;5.22;;;;;;;;;;5116081;28;20098;-85
2022/03/21 08:10:11;;;;;;;13.90;5.43;;;;;;;;;;5098395;28;20053;-85
2022/03/21 08:12:42;;;;;;;13.35;4.57;;;;;;;;;;5098773;28;20015;-85
2022/03/21 08:15:11;;;;;;;9.27;4.85;;;;;;;;;;5099909;28;20114;-85
2022/03/21 08:17:52;;;;;;;12.05;5.22;;;;;;;;;;5082573;28;20394;-84
2022/03/21 08:20:21;;;;;;;10.75;4.50;;;;;;;;;;5116732;28;20107;-86
2022/03/21 08:22:47;;;;;;;11.35;5.00;;;;;;;;;;5064439;28;20024;-87
2022/03/21 08:25:16;;;;;;;9.52;4.68;;;;;;;;;;5065987;28;20122;-85
2022/03/21 08:27:44;;;;;;;8.32;4.70;;;;;;;;;;5116276;28;20028;-83
2022/03/21 08:30:18;;;;;;;13.63;5.53;;;;;;;;;;5099956;28;20066;-86
2022/03/21 08:32:45;;;;;;;13.23;5.38;;;;;;;;;;5065509;28;20032;-85
2022/03/21 08:35:11;;;;;;;8.75;4.95;;;;;;;;;;5080514;28;20032;-84
2022/03/21 08:37:37;;;;;;;8.50;4.47;;;;;;;;;;5098346;28;20406;-87
2022/03/21 08:40:04;;;;;;;10.40;4.25;;;;;;;;;;5098338;28;20026;-84
2022/03/21 08:42:29;;;;;;;7.75;4.75;;;;;;;;;;5097581;28;20031;-83
2022/03/21 08:44:55;;;;;;;7.07;4.60;;;;;;;;;;5116115;28;20027;-82
2022/03/21 08:47:21;;;;;;;10.40;4.47;;;;;;;;;;5097848;28;20086;-82
2022/03/21 08:49:46;;;;;;;5.97;4.40;;;;;;;;;;5097366;28;20051;-85
2022/03/21 08:52:13;;;;;;;6.95;4.18;;;;;;;;;;5081180;28;20023;-84
2022/03/21 08:54:39;;;;;;;15.07;4.85;;;;;;;;;;5116190;28;20058;-83
2022/03/21 08:57:05;;;;;;;5.85;3.85;;;;;;;;;;5115250;28;20027;-84
2022/03/21 08:59:31;;;;;;;6.70;4.00;;;;;;;;;;5098013;28;20073;-82
2022/03/21 09:01:57;;;;;;;9.73;4.43;;;;;;;;;;5081189;28;20027;-81
2022/03/21 09:04:22;;;;;;;11.50;4.30;;;;;;;;;;5054628;28;20026;-83
2022/03/21 09:06:48;;;;;;;8.63;3.85;;;;;;;;;;5077796;28;20478;-82
2022/03/21 09:09:15;;;;;;;5.80;4.13;;;;;;;;;;5061558;28;20121;-80
2022/03/21 09:11:40;;;;;;;6.63;3.63;;;;;;;;;;5061489;28;20056;-79
2022/03/21 09:14:09;;;;;;;7.25;3.90;;;;;;;;;;5081246;28;20051;-83
2022/03/21 09:16:34;;;;;;;8.50;3.88;;;;;;;;;;5080339;28;20032;-80
2022/03/21 09:19:00;;;;;;;10.45;3.90;;;;;;;;;;5079184;28;20050;-82
2022/03/21 09:21:25;;;;;;;6.03;3.83;;;;;;;;;;5080314;28;20024;-79
2022/03/21 09:23:51;;;;;;;7.57;3.92;;;;;;;;;;5079694;28;20405;-80
2022/03/21 09:26:16;;;;;;;5.78;3.88;;;;;;;;;;5061759;28;20468;-82
2022/03/21 09:28:43;;;;;;;6.40;4.00;;;;;;;;;;5095799;28;20032;-81
2022/03/21 09:31:09;;;;;;;6.82;3.78;;;;;;;;;;5095810;28;20028;-83
2022/03/21 09:33:36;;;;;;;7.15;3.83;;;;;;;;;;5074408;28;20061;-81
2022/03/21 09:36:04;;;;;;;7.03;4.50;;;;;;;;;;5096780;28;20057;-83
2022/03/21 09:38:30;;;;;;;5.22;3.58;;;;;;;;;;5117245;28;20032;-82
2022/03/21 09:40:56;;;;;;;9.73;3.75;;;;;;;;;;5099377;28;20497;-83
2022/03/21 09:43:23;;;;;;;7.60;3.70;;;;;;;;;;5083881;28;20028;-83
2022/03/21 09:45:49;;;;;;;9.73;4.10;;;;;;;;;;5086111;28;20027;-84
2022/03/21 09:48:17;;;;;;;7.30;3.55;;;;;;;;;;5101095;28;20058;-82
2022/03/21 09:50:44;;;;;;;4.22;3.63;;;;;;;;;;5100856;28;20110;-83
2022/03/21 09:53:12;;;;;;;10.25;3.72;;;;;;;;;;5084344;28;20020;-83
2022/03/21 09:55:39;;;;;;;11.73;4.70;;;;;;;;;;5082579;28;20091;-83
2022/03/21 09:58:05;;;;;;;6.25;3.92;;;;;;;;;;5080360;28;20051;-84
2022/03/21 10:00:32;;;;;;;9.05;5.03;;;;;;;;;;5081296;28;20432;-83
2022/03/21 10:02:58;;;;;;;9.07;5.80;;;;;;;;;;5106919;28;20032;-83
2022/03/21 10:05:41;;;;;;;5.57;4.20;;;;;;;;;;5077622;28;20024;-83
2022/03/21 10:08:16;;;;;;;7.28;3.95;;;;;;;;;;5077101;28;20028;-83
2022/03/21 10:10:50;;;;;;;8.18;3.90;;;;;;;;;;5096962;28;20026;-84
2022/03/21 10:13:17;;;;;;;6.45;4.18;;;;;;;;;;5095022;28;20036;-83
2022/03/21 10:15:43;;;;;;;6.13;4.65;;;;;;;;;;5073615;28;20097;-83
2022/03/21 10:18:10;;;;;;;8.55;5.75;;;;;;;;;;5077532;28;20489;-80
2022/03/21 10:20:36;;;;;;;8.25;5.72;;;;;;;;;;5062014;28;20024;-83
2022/03/21 10:23:16;;;;;;;9.07;4.40;;;;;;;;;;5097467;28;20375;-83
2022/03/21 10:25:42;;;;;;;6.90;4.00;;;;;;;;;;5076606;28;20441;-84
2022/03/21 10:28:08;;;;;;;6.72;3.67;;;;;;;;;;5075558;28;20521;-83
2022/03/21 10:30:42;;;;;;;6.88;4.50;;;;;;;;;;5093378;28;20055;-83
2022/03/21 10:33:08;;;;;;;7.28;5.80;;;;;;;;;;5075744;28;20085;-83
2022/03/21 10:35:44;;;;;;;8.73;6.47;;;;;;;;;;5075728;28;20471;-81
2022/03/21 10:38:10;;;;;;;10.25;6.60;;;;;;;;;;5059591;28;20471;-80
2022/03/21 10:40:44;;;;;;;9.68;7.05;;;;;;;;;;5043361;28;20024;-81
2022/03/21 10:43:09;;;;;;;;;;;;;;;;;;5075719;28;20024;-80
2022/03/21 10:45:35;;;;;;;10.95;6.00;;;;;;;;;;5093463;28;19908;-81
2022/03/21 10:48:01;;;;;;;7.75;4.80;;;;;;;;;;5093331;28;20028;-81
2022/03/21 10:50:40;;;;;;;13.40;4.13;;;;;;;;;;5057755;28;20466;-83
2022/03/21 10:53:07;;;;;;;7.30;5.18;;;;;;;;;;5059609;28;20016;-83
2022/03/21 10:55:32;;;;;;;8.65;3.80;;;;;;;;;;5075027;28;20497;-83
2022/03/21 10:57:58;;;;;;;6.28;3.72;;;;;;;;;;5093204;28;20020;-83
2022/03/21 11:00:26;;;;;;;9.73;4.13;;;;;;;;;;5056255;28;20027;-83
2022/03/21 11:02:55;;;;;;;14.68;4.47;;;;;;;;;;5074511;28;20114;-82
2022/03/21 11:05:22;;;;;;;7.45;3.83;;;;;;;;;;5093378;28;20352;-82
2022/03/21 11:07:49;;;;;;;6.40;3.83;;;;;;;;;;5074874;28;20028;-83
2022/03/21 11:10:15;;;;;;;4.72;3.83;;;;;;;;;;5074045;28;20123;-82
2022/03/21 11:12:45;;;;;;;8.02;4.55;;;;;;;;;;5074398;28;20459;-82
2022/03/21 11:15:11;;;;;;;7.35;4.28;;;;;;;;;;5058630;28;20024;-82
2022/03/21 11:17:37;;;;;;;8.50;4.95;;;;;;;;;;5074360;28;20036;-81
2022/03/21 11:20:04;;;;;;;5.22;3.80;;;;;;;;;;5074931;28;20024;-82
2022/03/21 11:22:30;;;;;;;4.18;3.40;;;;;;;;;;5058246;28;20035;-83
2022/03/21 11:25:06;;;;;;;6.43;3.40;;;;;;;;;;5060933;28;20032;-82
2022/03/21 11:27:49;;;;;;;7.07;3.45;;;;;;;;;;5097786;28;20028;-82
2022/03/21 11:30:46;;;;;;;6.90;5.38;;;;;;;;;;5078779;28;20482;-82
2022/03/21 11:33:42;;;;;;;5.50;3.50;;;;;;;;;;5063682;28;20123;-81
2022/03/21 11:36:10;;;;;;;6.47;4.30;;;;;;;;;;5080575;28;20035;-82
2022/03/21 11:38:45;;;;;;;8.32;5.78;;;;;;;;;;5064623;28;20527;-82
2022/03/21 11:41:23;;;;;;;10.48;5.80;;;;;;;;;;5062965;28;20035;-82
2022/03/21 11:44:03;;;;;;;8.73;5.80;;;;;;;;;;5063024;28;20390;-82
2022/03/21 11:46:33;;;;;;;9.30;5.45;;;;;;;;;;5097996;28;20355;-82
2022/03/21 11:49:04;;;;;;;10.35;5.80;;;;;;;;;;5047124;28;20043;-81
2022/03/21 11:51:43;;;;;;;6.07;3.78;;;;;;;;;;5098833;28;20463;-82
2022/03/21 11:54:35;;;;;;;7.80;5.10;;;;;;;;;;5049616;28;20056;-82
2022/03/21 11:57:23;;;;;;;8.57;5.22;;;;;;;;;;5082684;28;20047;-82
2022/03/21 11:59:51;;;;;;;6.00;3.58;;;;;;;;;;5068101;28;20024;-83
2022/03/21 12:02:17;;;;;;;6.03;3.50;;;;;;;;;;5050425;28;20462;-83
2022/03/21 12:04:56;;;;;;;5.38;3.63;;;;;;;;;;5098255;28;20028;-82
2022/03/21 12:07:21;;;;;;;8.02;3.38;;;;;;;;;;5063608;28;20070;-82
2022/03/21 12:09:53;;;;;;;7.57;3.60;;;;;;;;;;5078101;28;20397;-83
2022/03/21 12:12:38;;;;;;;9.73;3.35;;;;;;;;;;5062377;28;20020;-83
2022/03/21 12:15:16;;;;;;;7.38;3.78;;;;;;;;;;5077419;28;20028;-83
2022/03/21 12:17:51;;;;;;;9.65;4.00;;;;;;;;;;5077735;28;20100;-83
2022/03/21 12:20:19;;;;;;;7.38;4.20;;;;;;;;;;5076771;28;20020;-83
2022/03/21 12:22:49;;;;;;;9.55;4.45;;;;;;;;;;5095392;28;20054;-84
2022/03/21 12:25:45;;;;;;;10.40;4.70;;;;;;;;;;5077299;28;20076;-83
2022/03/21 12:29:31;;;;;;;6.70;4.15;;;;;;;;;;5060284;28;20077;-83
2022/03/21 12:31:30;;;;;;;6.22;4.10;;;;;;;;;;5079386;28;20510;-83
2022/03/21 12:34:14;;;;;;;;;;;;;;;;;;5077627;28;20093;-84
2022/03/21 12:36:40;;;;;;;5.68;4.00;;;;;;;;;;5076212;28;19908;-83
2022/03/21 12:39:17;;;;;;;6.25;3.63;;;;;;;;;;5076578;28;20391;-83
2022/03/21 12:41:44;;;;;;;8.50;3.95;;;;;;;;;;5060108;28;20110;-83
2022/03/21 12:44:13;;;;;;;4.35;3.45;;;;;;;;;;5059827;28;20023;-83
2022/03/21 12:46:38;;;;;;;7.05;3.80;;;;;;;;;;5094961;28;20036;-83
2022/03/21 12:49:04;;;;;;;6.47;4.10;;;;;;;;;;5076441;28;20123;-84
2022/03/21 12:51:31;;;;;;;9.43;4.82;;;;;;;;;;5059799;28;20028;-83
2022/03/21 12:53:59;;;;;;;9.95;5.68;;;;;;;;;;5076460;28;20040;-83
2022/03/21 12:56:26;;;;;;;7.82;4.60;;;;;;;;;;5076454;28;20078;-83
2022/03/21 12:58:57;;;;;;;9.95;4.40;;;;;;;;;;5094843;28;20110;-83
2022/03/21 13:01:23;;;;;;;7.43;3.70;;;;;;;;;;5059265;28;20024;-84
2022/03/21 13:03:57;;;;;;;4.90;3.55;;;;;;;;;;5059864;28;20506;-84
2022/03/21 13:11:50;;;;;;;;;;;;;;;;;;5080050;28;20039;-84
2022/03/21 13:14:18;;;;;;;5.22;3.22;;;;;;;;;;5096613;28;20260;-83
2022/03/21 13:17:03;;;;;;;6.38;3.50;;;;;;;;;;5065850;28;20039;-84
2022/03/21 13:19:29;;;;;;;4.30;3.63;;;;;;;;;;5066951;28;20032;-84
2022/03/21 13:22:04;;;;;;;5.55;3.55;;;;;;;;;;5063967;28;20027;-83
2022/03/21 13:24:43;;;;;;;6.40;3.72;;;;;;;;;;5079632;28;20105;-84
2022/03/21 13:27:13;;;;;;;5.03;3.42;;;;;;;;;;5076195;28;20024;-84
2022/03/21 13:29:53;;;;;;;4.75;3.88;;;;;;;;;;5076117;28;20024;-83
2022/03/21 13:32:19;;;;;;;4.35;3.35;;;;;;;;;;5093545;28;20499;-83
2022/03/21 13:34:55;;;;;;;6.32;3.88;;;;;;;;;;5042360;28;20036;-84
2022/03/21 13:37:23;;;;;;;6.80;3.67;;;;;;;;;;5093711;28;20560;-84
2022/03/21 13:40:06;;;;;;;5.53;3.88;;;;;;;;;;5058881;28;20039;-84
2022/03/21 13:42:34;;;;;;;5.22;3.85;;;;;;;;;;5058797;28;20715;-84
2022/03/21 13:45:03;;;;;;;5.97;3.90;;;;;;;;;;5042424;28;20040;-83
2022/03/21 13:47:29;;;;;;;8.85;4.90;;;;;;;;;;5074640;28;20028;-83
2022/03/21 13:50:14;;;;;;;9.27;5.40;;;;;;;;;;5058927;28;20049;-83
2022/03/21 13:52:45;;;;;;;7.10;4.90;;;;;;;;;;5077074;28;20028;-83
2022/03/21 13:55:16;;;;;;;4.55;3.80;;;;;;;;;;5058716;28;20048;-82
2022/03/21 13:57:58;;;;;;;4.90;3.80;;;;;;;;;;5094150;28;20477;-83
2022/03/21 14:00:57;;;;;;;6.95;4.78;;;;;;;;;;5076085;28;20019;-84
2022/03/21 14:03:41;;;;;;;6.90;4.75;;;;;;;;;;5021976;28;20374;-84
2022/03/21 14:06:07;;;;;;;5.72;4.60;;;;;;;;;;5058826;28;20059;-85
2022/03/21 14:08:33;;;;;;;7.63;4.72;;;;;;;;;;5076298;28;20111;-85
2022/03/21 14:11:04;;;;;;;8.35;5.57;;;;;;;;;;5058728;28;20038;-83
2022/03/21 14:13:36;;;;;;;4.85;3.72;;;;;;;;;;5059484;28;20039;-83
2022/03/21 14:16:02;;;;;;;4.47;3.42;;;;;;;;;;5075013;28;20039;-85
2022/03/21 14:18:32;;;;;;;6.15;3.78;;;;;;;;;;5075560;28;20101;-86
2022/03/21 14:21:00;;;;;;;5.07;4.07;;;;;;;;;;5074947;28;20016;-84
2022/03/21 14:23:26;;;;;;;5.95;4.35;;;;;;;;;;5059688;28;20077;-83
2022/03/21 14:28:35;;;;;;;5.60;4.22;;;;;;;;;;5092979;28;20112;-84
2022/03/21 14:31:03;;;;;;;8.32;4.57;;;;;;;;;;5093596;28;20060;-85
2022/03/21 14:33:28;;;;;;;7.07;3.38;;;;;;;;;;5057980;28;20115;-85
2022/03/21 14:35:54;;;;;;;7.20;3.78;;;;;;;;;;5093947;28;20063;-85
2022/03/21 14:38:20;;;;;;;5.45;4.32;;;;;;;;;;5092662;28;20031;-85
2022/03/21 14:40:45;;;;;;;6.97;3.58;;;;;;;;;;5076273;28;20036;-83
2022/03/21 14:43:11;;;;;;;7.05;4.25;;;;;;;;;;5075834;28;20138;-84
2022/03/21 14:45:38;;;;;;;5.32;4.07;;;;;;;;;;5058161;28;20023;-84
2022/03/21 14:48:05;;;;;;;6.30;4.07;;;;;;;;;;5075060;28;20055;-84
2022/03/21 14:50:31;;;;;;;10.02;3.72;;;;;;;;;;5075329;28;20073;-84
2022/03/21 14:52:57;;;;;;;5.32;3.83;;;;;;;;;;5057627;28;20021;-84
2022/03/21 14:55:26;;;;;;;8.07;4.93;;;;;;;;;;5092795;28;20039;-84
2022/03/21 14:57:51;;;;;;;7.55;4.68;;;;;;;;;;5059783;28;20396;-83
2022/03/21 15:00:18;;;;;;;7.07;5.00;;;;;;;;;;5096155;28;20058;-83
2022/03/21 15:02:43;;;;;;;5.70;3.67;;;;;;;;;;5098023;28;20035;-84
2022/03/21 15:05:09;;;;;;;5.45;3.53;;;;;;;;;;5079552;28;20032;-84
2022/03/21 15:07:36;;;;;;;6.03;4.10;;;;;;;;;;5062965;28;20028;-84